createdAt,value
2018-12-17T00:00:49.037Z,1007.36
2018-12-17T00:01:49.006Z,1007.40
2018-12-17T00:02:48.999Z,1007.40
2018-12-17T00:03:48.986Z,1007.39
2018-12-17T00:04:48.990Z,1007.44
2018-12-17T00:05:48.983Z,1007.39
2018-12-17T00:06:48.954Z,1007.40
2018-12-17T00:07:48.941Z,1007.32
2018-12-17T00:08:48.931Z,1007.32
2018-12-17T00:09:48.919Z,1007.29
2018-12-17T00:10:48.927Z,1007.37
2018-12-17T00:11:48.898Z,1007.31
2018-12-17T00:12:48.891Z,1007.29
2018-12-17T00:13:48.875Z,1007.28
2018-12-17T00:14:48.868Z,1007.29
2018-12-17T00:15:48.874Z,1007.32
2018-12-17T00:16:48.843Z,1007.34
2018-12-17T00:17:48.834Z,1007.37
2018-12-17T00:18:48.820Z,1007.38
2018-12-17T00:19:48.873Z,1007.32
2018-12-17T00:20:48.822Z,1007.34
2018-12-17T00:21:48.789Z,1007.35
2018-12-17T00:22:48.777Z,1007.35
2018-12-17T00:23:48.768Z,1007.35
2018-12-17T00:24:48.766Z,1007.36
2018-12-17T00:25:48.765Z,1007.33
2018-12-17T00:26:48.733Z,1007.34
2018-12-17T00:27:48.724Z,1007.41
2018-12-17T00:28:48.714Z,1007.43
2018-12-17T00:29:48.745Z,1007.43
2018-12-17T00:30:48.726Z,1007.47
2018-12-17T00:31:48.682Z,1007.45
2018-12-17T00:32:48.672Z,1007.52
2018-12-17T00:33:48.659Z,1007.49
2018-12-17T00:34:48.647Z,1007.44
2018-12-17T00:35:48.636Z,1007.42
2018-12-17T00:36:48.660Z,1007.41
2018-12-17T00:37:48.613Z,1007.40
2018-12-17T00:38:48.603Z,1007.42
2018-12-17T00:39:48.592Z,1007.45
2018-12-17T00:40:48.584Z,1007.44
2018-12-17T00:41:48.650Z,1007.42
2018-12-17T00:42:48.563Z,1007.42
2018-12-17T00:43:48.552Z,1007.41
2018-12-17T00:44:48.548Z,1007.48
2018-12-17T00:45:48.530Z,1007.48
2018-12-17T00:46:48.539Z,1007.49
2018-12-17T00:47:48.505Z,1007.49
2018-12-17T00:48:48.495Z,1007.49
2018-12-17T00:49:48.491Z,1007.43
2018-12-17T00:50:48.479Z,1007.45
2018-12-17T00:51:48.495Z,1007.42
2018-12-17T00:52:48.541Z,1007.42
2018-12-17T00:53:48.441Z,1007.47
2018-12-17T00:54:48.430Z,1007.45
2018-12-17T00:55:48.420Z,1007.47
2018-12-17T00:56:48.429Z,1007.48
2018-12-17T00:57:48.398Z,1007.40
2018-12-17T00:58:48.389Z,1007.46
2018-12-17T00:59:48.376Z,1007.47
2018-12-17T01:00:48.366Z,1007.49
2018-12-17T01:01:48.374Z,1007.40
2018-12-17T01:02:48.343Z,1007.45
2018-12-17T01:03:48.335Z,1007.48
2018-12-17T01:04:48.341Z,1007.48
2018-12-17T01:05:48.310Z,1007.39
2018-12-17T01:06:48.325Z,1007.36
2018-12-17T01:07:48.288Z,1007.36
2018-12-17T01:08:48.286Z,1007.37
2018-12-17T01:09:48.267Z,1007.41
2018-12-17T01:10:48.261Z,1007.37
2018-12-17T01:11:48.268Z,1007.34
2018-12-17T01:12:48.234Z,1007.41
2018-12-17T01:13:48.229Z,1007.36
2018-12-17T01:14:48.216Z,1007.40
2018-12-17T01:15:48.205Z,1007.32
2018-12-17T01:16:48.233Z,1007.37
2018-12-17T01:17:48.181Z,1007.38
2018-12-17T01:18:48.169Z,1007.38
2018-12-17T01:19:48.158Z,1007.35
2018-12-17T01:20:48.148Z,1007.39
2018-12-17T01:21:48.136Z,1007.38
2018-12-17T01:22:48.160Z,1007.38
2018-12-17T01:23:48.116Z,1007.39
2018-12-17T01:24:48.104Z,1007.38
2018-12-17T01:25:48.095Z,1007.33
2018-12-17T01:26:48.082Z,1007.38
2018-12-17T01:27:48.096Z,1007.40
2018-12-17T01:28:48.061Z,1007.41
2018-12-17T01:29:48.052Z,1007.40
2018-12-17T01:30:48.042Z,1007.37
2018-12-17T01:31:48.027Z,1007.49
2018-12-17T01:32:48.048Z,1007.48
2018-12-17T01:33:48.055Z,1007.51
2018-12-17T01:34:47.995Z,1007.49
2018-12-17T01:35:47.987Z,1007.56
2018-12-17T01:36:47.975Z,1007.55
2018-12-17T01:37:47.990Z,1007.58
2018-12-17T01:38:47.953Z,1007.57
2018-12-17T01:39:47.942Z,1007.57
2018-12-17T01:40:47.933Z,1007.54
2018-12-17T01:41:47.921Z,1007.61
2018-12-17T01:42:47.929Z,1007.58
2018-12-17T01:43:47.898Z,1007.60
2018-12-17T01:44:47.894Z,1007.66
2018-12-17T01:45:47.888Z,1007.63
2018-12-17T01:46:47.870Z,1007.64
2018-12-17T01:47:47.878Z,1007.70
2018-12-17T01:48:47.847Z,1007.70
2018-12-17T01:49:47.833Z,1007.66
2018-12-17T01:50:47.823Z,1007.68
2018-12-17T01:51:47.815Z,1007.66
2018-12-17T01:52:47.826Z,1007.69
2018-12-17T01:53:47.793Z,1007.72
2018-12-17T01:54:47.778Z,1007.73
2018-12-17T01:55:47.777Z,1007.72
2018-12-17T01:56:47.757Z,1007.73
2018-12-17T01:57:47.767Z,1007.72
2018-12-17T01:58:47.744Z,1007.71
2018-12-17T01:59:47.730Z,1007.73
2018-12-17T02:00:47.716Z,1007.72
2018-12-17T02:01:47.730Z,1007.71
2018-12-17T02:02:47.711Z,1007.74
2018-12-17T02:03:47.725Z,1007.70
2018-12-17T02:04:47.674Z,1007.78
2018-12-17T02:05:47.658Z,1007.70
2018-12-17T02:06:47.649Z,1007.76
2018-12-17T02:07:47.659Z,1007.78
2018-12-17T02:08:47.633Z,1007.74
2018-12-17T02:09:47.617Z,1007.70
2018-12-17T02:10:47.604Z,1007.70
2018-12-17T02:11:47.594Z,1007.67
2018-12-17T02:12:47.793Z,1007.66
2018-12-17T02:13:47.572Z,1007.70
2018-12-17T02:14:47.561Z,1007.69
2018-12-17T02:15:47.551Z,1007.66
2018-12-17T02:16:47.541Z,1007.66
2018-12-17T02:17:47.529Z,1007.62
2018-12-17T02:18:47.607Z,1007.67
2018-12-17T02:19:47.510Z,1007.65
2018-12-17T02:20:47.496Z,1007.69
2018-12-17T02:21:47.484Z,1007.66
2018-12-17T02:22:47.476Z,1007.66
2018-12-17T02:23:47.483Z,1007.68
2018-12-17T02:24:47.494Z,1007.68
2018-12-17T02:25:47.441Z,1007.71
2018-12-17T02:26:47.432Z,1007.73
2018-12-17T02:27:47.422Z,1007.73
2018-12-17T02:28:47.430Z,1007.66
2018-12-17T02:29:47.399Z,1007.70
2018-12-17T02:30:47.395Z,1007.64
2018-12-17T02:31:47.379Z,1007.62
2018-12-17T02:32:47.369Z,1007.56
2018-12-17T02:33:47.374Z,1007.56
2018-12-17T02:34:47.344Z,1007.57
2018-12-17T02:35:47.334Z,1007.62
2018-12-17T02:36:47.385Z,1007.60
2018-12-17T02:37:47.314Z,1007.65
2018-12-17T02:38:47.321Z,1007.66
2018-12-17T02:39:47.292Z,1007.74
2018-12-17T02:40:47.281Z,1007.67
2018-12-17T02:41:47.269Z,1007.74
2018-12-17T02:42:47.269Z,1007.73
2018-12-17T02:43:47.268Z,1007.75
2018-12-17T02:44:47.238Z,1007.82
2018-12-17T02:45:47.227Z,1007.83
2018-12-17T02:46:47.214Z,1007.86
2018-12-17T02:47:47.204Z,1007.87
2018-12-17T02:48:47.215Z,1007.86
2018-12-17T02:49:47.183Z,1007.88
2018-12-17T02:50:47.172Z,1007.94
2018-12-17T02:51:47.160Z,1007.92
2018-12-17T02:52:47.151Z,1007.96
2018-12-17T02:53:47.158Z,1007.95
2018-12-17T02:54:47.129Z,1007.95
2018-12-17T02:55:47.121Z,1008.06
2018-12-17T02:56:47.108Z,1008.09
2018-12-17T02:57:47.099Z,1008.07
2018-12-17T02:58:47.103Z,1008.12
2018-12-17T02:59:47.079Z,1008.14
2018-12-17T03:00:47.063Z,1008.18
2018-12-17T03:01:47.052Z,1008.14
2018-12-17T03:02:47.041Z,1008.14
2018-12-17T03:03:47.056Z,1008.11
2018-12-17T03:04:47.023Z,1008.14
2018-12-17T03:05:47.010Z,1008.13
2018-12-17T03:06:46.998Z,1008.11
2018-12-17T03:07:46.988Z,1008.13
2018-12-17T03:08:46.998Z,1008.11
2018-12-17T03:09:46.964Z,1008.15
2018-12-17T03:10:46.972Z,1008.11
2018-12-17T03:11:46.945Z,1008.13
2018-12-17T03:12:46.934Z,1008.09
2018-12-17T03:13:46.945Z,1008.13
2018-12-17T03:14:46.911Z,1008.13
2018-12-17T03:15:46.899Z,1008.14
2018-12-17T03:16:46.891Z,1008.11
2018-12-17T03:17:46.879Z,1008.16
2018-12-17T03:18:46.907Z,1008.13
2018-12-17T03:19:46.856Z,1008.17
2018-12-17T03:20:46.849Z,1008.17
2018-12-17T03:21:46.836Z,1008.20
2018-12-17T03:22:46.827Z,1008.21
2018-12-17T03:23:46.833Z,1008.24
2018-12-17T03:24:46.803Z,1008.22
2018-12-17T03:25:46.797Z,1008.18
2018-12-17T03:26:46.790Z,1008.14
2018-12-17T03:27:46.775Z,1008.17
2018-12-17T03:28:51.645Z,1008.15
2018-12-17T03:29:46.772Z,1008.10
2018-12-17T03:30:46.740Z,1008.16
2018-12-17T03:31:46.756Z,1008.10
2018-12-17T03:32:46.718Z,1008.13
2018-12-17T03:33:46.729Z,1008.08
2018-12-17T03:34:46.695Z,1008.12
2018-12-17T03:35:46.683Z,1008.12
2018-12-17T03:36:46.674Z,1008.12
2018-12-17T03:37:46.691Z,1008.13
2018-12-17T03:38:46.672Z,1008.10
2018-12-17T03:39:46.643Z,1008.12
2018-12-17T03:40:46.647Z,1008.08
2018-12-17T03:41:46.621Z,1008.11
2018-12-17T03:42:46.618Z,1008.11
2018-12-17T03:43:46.639Z,1008.14
2018-12-17T03:44:46.589Z,1008.14
2018-12-17T03:45:46.576Z,1008.12
2018-12-17T03:46:46.565Z,1008.11
2018-12-17T03:47:46.554Z,1008.13
2018-12-17T03:48:46.660Z,1008.13
2018-12-17T03:49:46.572Z,1008.10
2018-12-17T03:50:46.526Z,1008.16
2018-12-17T03:51:46.511Z,1008.10
2018-12-17T03:52:46.499Z,1008.09
2018-12-17T03:53:46.490Z,1008.13
2018-12-17T03:54:46.497Z,1008.12
2018-12-17T03:55:46.466Z,1008.12
2018-12-17T03:56:46.456Z,1008.13
2018-12-17T03:57:46.446Z,1008.11
2018-12-17T03:58:46.437Z,1008.08
2018-12-17T03:59:46.443Z,1008.10
2018-12-17T04:00:46.415Z,1008.06
2018-12-17T04:01:46.404Z,1008.08
2018-12-17T04:02:46.391Z,1008.09
2018-12-17T04:03:46.381Z,1008.08
2018-12-17T04:04:46.389Z,1008.10
2018-12-17T04:05:46.360Z,1008.10
2018-12-17T04:06:46.347Z,1008.10
2018-12-17T04:07:46.338Z,1008.12
2018-12-17T04:08:46.325Z,1008.11
2018-12-17T04:09:46.337Z,1008.06
2018-12-17T04:10:46.304Z,1008.09
2018-12-17T04:11:46.296Z,1008.09
2018-12-17T04:12:46.285Z,1008.11
2018-12-17T04:13:46.274Z,1008.09
2018-12-17T04:14:46.285Z,1008.15
2018-12-17T04:15:46.254Z,1008.12
2018-12-17T04:16:46.238Z,1008.18
2018-12-17T04:17:46.228Z,1008.18
2018-12-17T04:18:46.218Z,1008.16
2018-12-17T04:19:46.226Z,1008.13
2018-12-17T04:20:46.200Z,1008.13
2018-12-17T04:21:46.186Z,1008.09
2018-12-17T04:22:46.173Z,1008.14
2018-12-17T04:23:46.164Z,1008.17
2018-12-17T04:24:46.174Z,1008.18
2018-12-17T04:25:46.147Z,1008.14
2018-12-17T04:26:46.132Z,1008.19
2018-12-17T04:27:46.121Z,1008.16
2018-12-17T04:28:46.107Z,1008.19
2018-12-17T04:29:46.119Z,1008.18
2018-12-17T04:30:46.090Z,1008.22
2018-12-17T04:31:46.075Z,1008.17
2018-12-17T04:32:46.064Z,1008.23
2018-12-17T04:33:46.053Z,1008.21
2018-12-17T04:34:46.065Z,1008.21
2018-12-17T04:35:46.034Z,1008.22
2018-12-17T04:36:46.023Z,1008.18
2018-12-17T04:37:46.012Z,1008.19
2018-12-17T04:38:46.001Z,1008.20
2018-12-17T04:39:46.008Z,1008.21
2018-12-17T04:40:45.978Z,1008.21
2018-12-17T04:41:45.970Z,1008.25
2018-12-17T04:42:45.959Z,1008.20
2018-12-17T04:43:45.952Z,1008.23
2018-12-17T04:44:45.954Z,1008.21
2018-12-17T04:45:45.924Z,1008.18
2018-12-17T04:46:45.919Z,1008.21
2018-12-17T04:47:45.905Z,1008.21
2018-12-17T04:48:45.891Z,1008.21
2018-12-17T04:49:45.900Z,1008.21
2018-12-17T04:50:45.871Z,1008.21
2018-12-17T04:51:45.859Z,1008.21
2018-12-17T04:52:45.850Z,1008.25
2018-12-17T04:53:45.837Z,1008.29
2018-12-17T04:54:45.848Z,1008.31
2018-12-17T04:55:45.815Z,1008.32
2018-12-17T04:56:45.812Z,1008.28
2018-12-17T04:57:45.795Z,1008.32
2018-12-17T04:58:45.784Z,1008.37
2018-12-17T04:59:45.796Z,1008.34
2018-12-17T05:00:45.761Z,1008.37
2018-12-17T05:01:45.753Z,1008.41
2018-12-17T05:02:45.741Z,1008.42
2018-12-17T05:03:45.728Z,1008.41
2018-12-17T05:04:45.747Z,1008.44
2018-12-17T05:05:45.708Z,1008.47
2018-12-17T05:06:45.696Z,1008.50
2018-12-17T05:07:45.690Z,1008.47
2018-12-17T05:08:45.677Z,1008.54
2018-12-17T05:09:45.686Z,1008.53
2018-12-17T05:10:45.654Z,1008.52
2018-12-17T05:11:45.644Z,1008.53
2018-12-17T05:12:45.631Z,1008.53
2018-12-17T05:13:45.619Z,1008.49
2018-12-17T05:14:45.632Z,1008.49
2018-12-17T05:15:45.599Z,1008.49
2018-12-17T05:16:45.590Z,1008.49
2018-12-17T05:17:45.577Z,1008.48
2018-12-17T05:18:45.567Z,1008.54
2018-12-17T05:19:45.582Z,1008.50
2018-12-17T05:20:45.549Z,1008.52
2018-12-17T05:21:47.089Z,1008.58
2018-12-17T05:22:45.581Z,1008.58
2018-12-17T05:23:45.514Z,1008.61
2018-12-17T05:24:45.522Z,1008.60
2018-12-17T05:25:45.489Z,1008.61
2018-12-17T05:26:45.480Z,1008.63
2018-12-17T05:27:45.471Z,1008.56
2018-12-17T05:28:45.461Z,1008.63
2018-12-17T05:29:45.471Z,1008.64
2018-12-17T05:30:45.439Z,1008.67
2018-12-17T05:31:45.426Z,1008.69
2018-12-17T05:32:45.415Z,1008.70
2018-12-17T05:33:45.404Z,1008.67
2018-12-17T05:34:45.413Z,1008.67
2018-12-17T05:35:54.099Z,1008.70
2018-12-17T05:36:45.376Z,1008.72
2018-12-17T05:37:45.364Z,1008.75
2018-12-17T05:38:45.357Z,1008.76
2018-12-17T05:39:45.363Z,1008.81
2018-12-17T05:40:45.331Z,1008.76
2018-12-17T05:41:45.321Z,1008.74
2018-12-17T05:42:45.307Z,1008.74
2018-12-17T05:43:45.308Z,1008.80
2018-12-17T05:44:45.318Z,1008.84
2018-12-17T05:45:45.273Z,1008.85
2018-12-17T05:46:45.267Z,1008.85
2018-12-17T05:47:45.256Z,1008.91
2018-12-17T05:48:45.240Z,1008.92
2018-12-17T05:49:45.233Z,1008.90
2018-12-17T05:50:45.242Z,1008.89
2018-12-17T05:51:45.208Z,1008.90
2018-12-17T05:52:45.200Z,1008.88
2018-12-17T05:53:45.193Z,1008.93
2018-12-17T05:54:45.177Z,1008.88
2018-12-17T05:55:45.188Z,1008.92
2018-12-17T05:56:45.158Z,1008.96
2018-12-17T05:57:54.730Z,1008.98
2018-12-17T05:58:45.133Z,1008.96
2018-12-17T05:59:45.124Z,1008.97
2018-12-17T06:00:45.134Z,1008.98
2018-12-17T06:01:45.099Z,1008.99
2018-12-17T06:02:45.091Z,1008.98
2018-12-17T06:03:54.493Z,1009.06
2018-12-17T06:04:45.068Z,1009.05
2018-12-17T06:05:45.078Z,1009.05
2018-12-17T06:06:45.045Z,1009.03
2018-12-17T06:07:45.049Z,1008.99
2018-12-17T06:08:45.026Z,1009.05
2018-12-17T06:09:48.182Z,1009.05
2018-12-17T06:10:54.599Z,1009.02
2018-12-17T06:11:45.055Z,1009.04
2018-12-17T06:14:02.101Z,1009.07
2018-12-17T06:15:02.106Z,1009.11
2018-12-17T06:16:02.081Z,1009.10
2018-12-17T06:17:02.107Z,1009.08
2018-12-17T06:18:02.059Z,1009.06
2018-12-17T06:19:02.042Z,1009.05
2018-12-17T06:20:02.080Z,1009.07
2018-12-17T06:21:02.022Z,1009.04
2018-12-17T06:22:02.011Z,1009.09
2018-12-17T06:23:02.007Z,1009.04
2018-12-17T06:24:01.993Z,1009.02
2018-12-17T06:25:02.023Z,1009.06
2018-12-17T06:26:01.987Z,1009.05
2018-12-17T06:27:01.960Z,1009.12
2018-12-17T06:28:01.970Z,1009.10
2018-12-17T06:29:01.930Z,1009.11
2018-12-17T06:30:02.020Z,1009.10
2018-12-17T06:31:01.963Z,1009.06
2018-12-17T06:32:01.906Z,1009.11
2018-12-17T06:33:01.890Z,1009.12
2018-12-17T06:34:01.890Z,1009.08
2018-12-17T06:35:01.934Z,1009.19
2018-12-17T06:36:01.883Z,1009.13
2018-12-17T06:37:01.879Z,1009.16
2018-12-17T06:38:01.848Z,1009.20
2018-12-17T06:39:52.044Z,1009.20
2018-12-17T06:40:52.056Z,1009.23
2018-12-17T06:41:52.023Z,1009.25
2018-12-17T06:42:52.009Z,1009.24
2018-12-17T06:43:51.997Z,1009.26
2018-12-17T06:44:51.985Z,1009.25
2018-12-17T06:45:52.008Z,1009.30
2018-12-17T06:46:51.964Z,1009.33
2018-12-17T06:47:51.952Z,1009.36
2018-12-17T06:49:01.490Z,1009.34
2018-12-17T06:50:00.548Z,1009.31
2018-12-17T06:50:51.926Z,1009.33
2018-12-17T06:51:51.929Z,1009.34
2018-12-17T06:52:51.900Z,1009.38
2018-12-17T06:53:52.216Z,1009.36
2018-12-17T06:54:54.945Z,1009.38
2018-12-17T06:55:51.987Z,1009.38
2018-12-17T06:56:51.873Z,1009.40
2018-12-17T06:57:51.843Z,1009.45
2018-12-17T06:59:01.412Z,1009.44
2018-12-17T06:59:51.822Z,1009.48
2018-12-17T07:00:51.809Z,1009.51
2018-12-17T07:01:51.839Z,1009.47
2018-12-17T07:02:51.789Z,1009.54
2018-12-17T07:03:51.777Z,1009.51
2018-12-17T07:04:51.765Z,1009.54
2018-12-17T07:05:51.753Z,1009.54
2018-12-17T07:06:51.763Z,1009.59
2018-12-17T07:07:51.734Z,1009.60
2018-12-17T07:08:51.722Z,1009.61
2018-12-17T07:09:51.708Z,1009.62
2018-12-17T07:10:51.697Z,1009.61
2018-12-17T07:11:51.728Z,1009.62
2018-12-17T07:12:51.676Z,1009.61
2018-12-17T07:13:51.668Z,1009.60
2018-12-17T07:14:51.653Z,1009.69
2018-12-17T07:15:51.647Z,1009.71
2018-12-17T07:16:51.632Z,1009.72
2018-12-17T07:17:51.639Z,1009.70
2018-12-17T07:18:51.618Z,1009.69
2018-12-17T07:19:51.597Z,1009.74
2018-12-17T07:20:51.588Z,1009.75
2018-12-17T07:21:51.575Z,1009.69
2018-12-17T07:22:51.584Z,1009.70
2018-12-17T07:23:51.557Z,1009.70
2018-12-17T07:24:51.544Z,1009.67
2018-12-17T07:25:51.535Z,1009.73
2018-12-17T07:26:51.519Z,1009.72
2018-12-17T07:27:51.537Z,1009.78
2018-12-17T07:28:51.499Z,1009.78
2018-12-17T07:29:51.493Z,1009.78
2018-12-17T07:30:51.477Z,1009.74
2018-12-17T07:31:51.471Z,1009.78
2018-12-17T07:32:51.480Z,1009.79
2018-12-17T07:33:51.446Z,1009.81
2018-12-17T07:34:51.436Z,1009.79
2018-12-17T07:35:51.420Z,1009.82
2018-12-17T07:36:51.409Z,1009.80
2018-12-17T07:37:51.419Z,1009.91
2018-12-17T07:38:51.388Z,1009.90
2018-12-17T07:39:51.377Z,1009.96
2018-12-17T07:40:51.370Z,1009.96
2018-12-17T07:41:51.358Z,1010.02
2018-12-17T07:42:51.380Z,1009.95
2018-12-17T07:43:51.332Z,1010.04
2018-12-17T07:44:51.339Z,1010.00
2018-12-17T07:45:51.312Z,1010.06
2018-12-17T07:46:51.301Z,1010.07
2018-12-17T07:47:51.289Z,1010.12
2018-12-17T07:48:51.299Z,1010.17
2018-12-17T07:49:51.267Z,1010.14
2018-12-17T07:50:51.255Z,1010.16
2018-12-17T07:51:51.245Z,1010.18
2018-12-17T07:52:51.233Z,1010.16
2018-12-17T07:53:51.243Z,1010.21
2018-12-17T07:54:51.213Z,1010.22
2018-12-17T07:55:51.200Z,1010.18
2018-12-17T07:56:51.190Z,1010.23
2018-12-17T07:57:51.179Z,1010.21
2018-12-17T07:58:51.191Z,1010.28
2018-12-17T07:59:56.727Z,1010.27
2018-12-17T08:00:51.149Z,1010.31
2018-12-17T08:01:51.134Z,1010.32
2018-12-17T08:02:51.124Z,1010.29
2018-12-17T08:03:51.136Z,1010.30
2018-12-17T08:04:51.104Z,1010.37
2018-12-17T08:05:51.096Z,1010.36
2018-12-17T08:06:51.091Z,1010.41
2018-12-17T08:07:51.070Z,1010.37
2018-12-17T08:08:51.075Z,1010.43
2018-12-17T08:09:51.045Z,1010.42
2018-12-17T08:10:51.038Z,1010.47
2018-12-17T08:11:51.028Z,1010.44
2018-12-17T08:12:51.012Z,1010.46
2018-12-17T08:13:51.022Z,1010.48
2018-12-17T08:14:50.990Z,1010.48
2018-12-17T08:15:50.980Z,1010.52
2018-12-17T08:16:50.971Z,1010.49
2018-12-17T08:17:50.956Z,1010.54
2018-12-17T08:18:50.967Z,1010.58
2018-12-17T08:19:50.934Z,1010.57
2018-12-17T08:20:50.924Z,1010.57
2018-12-17T08:21:50.916Z,1010.63
2018-12-17T08:22:50.911Z,1010.66
2018-12-17T08:23:50.910Z,1010.64
2018-12-17T08:24:50.958Z,1010.68
2018-12-17T08:25:50.869Z,1010.71
2018-12-17T08:26:50.857Z,1010.68
2018-12-17T08:27:50.848Z,1010.70
2018-12-17T08:28:50.855Z,1010.70
2018-12-17T08:29:50.832Z,1010.69
2018-12-17T08:30:50.814Z,1010.74
2018-12-17T08:31:50.803Z,1010.76
2018-12-17T08:32:50.793Z,1010.74
2018-12-17T08:33:50.800Z,1010.84
2018-12-17T08:34:50.769Z,1010.80
2018-12-17T08:35:50.763Z,1010.83
2018-12-17T08:36:50.750Z,1010.83
2018-12-17T08:37:50.736Z,1010.89
2018-12-17T08:38:50.750Z,1010.87
2018-12-17T08:39:50.713Z,1010.90
2018-12-17T08:40:50.706Z,1010.90
2018-12-17T08:41:50.693Z,1010.90
2018-12-17T08:42:50.680Z,1010.89
2018-12-17T08:43:50.714Z,1010.87
2018-12-17T08:44:50.660Z,1010.91
2018-12-17T08:45:50.650Z,1010.88
2018-12-17T08:46:50.638Z,1010.85
2018-12-17T08:47:50.630Z,1010.90
2018-12-17T08:48:50.616Z,1010.94
2018-12-17T08:49:50.624Z,1010.99
2018-12-17T08:50:50.592Z,1010.99
2018-12-17T08:51:50.583Z,1010.97
2018-12-17T08:52:50.571Z,1011.01
2018-12-17T08:53:50.562Z,1011.03
2018-12-17T08:54:50.573Z,1011.03
2018-12-17T08:55:50.554Z,1011.04
2018-12-17T08:56:50.529Z,1011.10
2018-12-17T08:57:50.515Z,1011.08
2018-12-17T08:58:50.507Z,1011.11
2018-12-17T08:59:50.513Z,1011.15
2018-12-17T09:00:50.485Z,1011.10
2018-12-17T09:01:50.470Z,1011.15
2018-12-17T09:02:50.461Z,1011.12
2018-12-17T09:03:50.450Z,1011.13
2018-12-17T09:04:50.459Z,1011.17
2018-12-17T09:05:50.431Z,1011.13
2018-12-17T09:06:50.417Z,1011.16
2018-12-17T09:07:50.408Z,1011.16
2018-12-17T09:08:50.396Z,1011.13
2018-12-17T09:09:50.401Z,1011.15
2018-12-17T09:10:50.370Z,1011.15
2018-12-17T09:11:50.360Z,1011.14
2018-12-17T09:12:50.348Z,1011.12
2018-12-17T09:13:50.337Z,1011.14
2018-12-17T09:14:50.346Z,1011.16
2018-12-17T09:15:50.315Z,1011.14
2018-12-17T09:16:50.304Z,1011.21
2018-12-17T09:17:50.293Z,1011.29
2018-12-17T09:18:50.283Z,1011.26
2018-12-17T09:19:50.295Z,1011.22
2018-12-17T09:20:50.258Z,1011.19
2018-12-17T09:21:50.253Z,1011.22
2018-12-17T09:22:50.240Z,1011.21
2018-12-17T09:23:50.235Z,1011.24
2018-12-17T09:24:50.236Z,1011.28
2018-12-17T09:25:50.206Z,1011.29
2018-12-17T09:26:50.194Z,1011.27
2018-12-17T09:27:50.183Z,1011.23
2018-12-17T09:28:50.171Z,1011.32
2018-12-17T09:29:50.182Z,1011.30
2018-12-17T09:30:50.150Z,1011.27
2018-12-17T09:31:50.137Z,1011.27
2018-12-17T09:32:50.126Z,1011.33
2018-12-17T09:33:50.116Z,1011.30
2018-12-17T09:34:50.125Z,1011.28
2018-12-17T09:35:50.099Z,1011.33
2018-12-17T09:36:50.081Z,1011.35
2018-12-17T09:37:50.071Z,1011.37
2018-12-17T09:38:50.062Z,1011.33
2018-12-17T09:39:50.069Z,1011.41
2018-12-17T09:40:50.036Z,1011.40
2018-12-17T09:41:50.026Z,1011.45
2018-12-17T09:42:50.017Z,1011.50
2018-12-17T09:43:50.005Z,1011.50
2018-12-17T09:44:50.014Z,1011.49
2018-12-17T09:45:49.983Z,1011.47
2018-12-17T09:46:49.970Z,1011.51
2018-12-17T09:47:49.959Z,1011.51
2018-12-17T09:48:49.949Z,1011.51
2018-12-17T09:49:49.960Z,1011.52
2018-12-17T09:50:49.927Z,1011.57
2018-12-17T09:51:49.918Z,1011.59
2018-12-17T09:52:49.906Z,1011.59
2018-12-17T09:53:49.894Z,1011.54
2018-12-17T09:54:49.903Z,1011.58
2018-12-17T09:55:49.870Z,1011.62
2018-12-17T09:56:49.862Z,1011.61
2018-12-17T09:57:49.851Z,1011.60
2018-12-17T09:58:49.837Z,1011.64
2018-12-17T09:59:49.847Z,1011.61
2018-12-17T10:00:49.817Z,1011.58
2018-12-17T10:01:49.808Z,1011.61
2018-12-17T10:02:49.802Z,1011.64
2018-12-17T10:03:49.782Z,1011.62
2018-12-17T10:04:49.791Z,1011.58
2018-12-17T10:05:49.763Z,1011.62
2018-12-17T10:06:49.757Z,1011.60
2018-12-17T10:07:49.737Z,1011.55
2018-12-17T10:08:49.737Z,1011.54
2018-12-17T10:09:49.736Z,1011.52
2018-12-17T10:10:49.704Z,1011.52
2018-12-17T10:11:49.694Z,1011.50
2018-12-17T10:12:49.681Z,1011.51
2018-12-17T10:13:49.673Z,1011.47
2018-12-17T10:14:49.679Z,1011.49
2018-12-17T10:15:49.648Z,1011.44
2018-12-17T10:16:49.640Z,1011.43
2018-12-17T10:17:49.627Z,1011.47
2018-12-17T10:18:49.615Z,1011.46
2018-12-17T10:19:49.624Z,1011.43
2018-12-17T10:20:49.593Z,1011.42
2018-12-17T10:21:49.585Z,1011.39
2018-12-17T10:22:49.571Z,1011.45
2018-12-17T10:23:49.562Z,1011.41
2018-12-17T10:24:49.571Z,1011.46
2018-12-17T10:25:49.539Z,1011.46
2018-12-17T10:26:49.526Z,1011.47
2018-12-17T10:27:49.515Z,1011.46
2018-12-17T10:28:49.504Z,1011.45
2018-12-17T10:29:49.512Z,1011.48
2018-12-17T10:30:49.482Z,1011.45
2018-12-17T10:31:49.482Z,1011.45
2018-12-17T10:32:49.459Z,1011.53
2018-12-17T10:33:49.449Z,1011.49
2018-12-17T10:34:49.460Z,1011.48
2018-12-17T10:35:49.427Z,1011.52
2018-12-17T10:36:49.420Z,1011.51
2018-12-17T10:37:49.404Z,1011.50
2018-12-17T10:38:49.398Z,1011.49
2018-12-17T10:39:49.412Z,1011.58
2018-12-17T10:40:49.370Z,1011.57
2018-12-17T10:41:49.359Z,1011.52
2018-12-17T10:42:49.347Z,1011.50
2018-12-17T10:43:49.339Z,1011.52
2018-12-17T10:44:49.331Z,1011.49
2018-12-17T10:45:49.336Z,1011.54
2018-12-17T10:46:49.307Z,1011.51
2018-12-17T10:47:49.294Z,1011.51
2018-12-17T10:48:49.280Z,1011.48
2018-12-17T10:49:49.274Z,1011.45
2018-12-17T10:50:49.279Z,1011.51
2018-12-17T10:51:49.247Z,1011.42
2018-12-17T10:52:49.239Z,1011.46
2018-12-17T10:53:49.224Z,1011.45
2018-12-17T10:54:49.217Z,1011.43
2018-12-17T10:55:49.230Z,1011.38
2018-12-17T10:56:49.191Z,1011.40
2018-12-17T10:57:49.180Z,1011.42
2018-12-17T10:58:49.171Z,1011.41
2018-12-17T10:59:49.162Z,1011.41
2018-12-17T11:00:49.167Z,1011.39
2018-12-17T11:01:49.138Z,1011.41
2018-12-17T11:02:49.127Z,1011.41
2018-12-17T11:03:49.116Z,1011.38
2018-12-17T11:04:49.105Z,1011.39
2018-12-17T11:05:49.113Z,1011.39
2018-12-17T11:06:49.082Z,1011.36
2018-12-17T11:07:49.072Z,1011.39
2018-12-17T11:08:49.058Z,1011.43
2018-12-17T11:09:49.048Z,1011.47
2018-12-17T11:10:49.056Z,1011.43
2018-12-17T11:11:49.025Z,1011.46
2018-12-17T11:12:49.016Z,1011.50
2018-12-17T11:13:49.002Z,1011.50
2018-12-17T11:14:48.992Z,1011.50
2018-12-17T11:15:49.002Z,1011.51
2018-12-17T11:16:48.995Z,1011.50
2018-12-17T11:17:48.960Z,1011.47
2018-12-17T11:18:48.950Z,1011.46
2018-12-17T11:19:48.942Z,1011.52
2018-12-17T11:20:48.947Z,1011.48
2018-12-17T11:21:48.918Z,1011.51
2018-12-17T11:22:48.903Z,1011.47
2018-12-17T11:23:48.894Z,1011.54
2018-12-17T11:24:48.883Z,1011.54
2018-12-17T11:25:48.891Z,1011.54
2018-12-17T11:26:48.858Z,1011.54
2018-12-17T11:27:48.850Z,1011.63
2018-12-17T11:28:48.839Z,1011.55
2018-12-17T11:29:48.827Z,1011.56
2018-12-17T11:30:48.834Z,1011.53
2018-12-17T11:31:48.803Z,1011.54
2018-12-17T11:32:48.862Z,1011.54
2018-12-17T11:33:48.783Z,1011.55
2018-12-17T11:34:48.774Z,1011.51
2018-12-17T11:35:48.782Z,1011.53
2018-12-17T11:36:48.747Z,1011.53
2018-12-17T11:37:48.736Z,1011.51
2018-12-17T11:38:48.726Z,1011.50
2018-12-17T11:39:48.746Z,1011.50
2018-12-17T11:40:48.724Z,1011.54
2018-12-17T11:41:48.692Z,1011.50
2018-12-17T11:42:48.681Z,1011.51
2018-12-17T11:43:48.669Z,1011.49
2018-12-17T11:44:48.659Z,1011.47
2018-12-17T11:45:48.668Z,1011.47
2018-12-17T11:46:48.639Z,1011.44
2018-12-17T11:47:48.625Z,1011.44
2018-12-17T11:48:48.615Z,1011.46
2018-12-17T11:49:48.604Z,1011.48
2018-12-17T11:50:48.616Z,1011.47
2018-12-17T11:51:48.580Z,1011.50
2018-12-17T11:52:48.570Z,1011.49
2018-12-17T11:53:48.559Z,1011.50
2018-12-17T11:54:48.549Z,1011.51
2018-12-17T11:55:48.557Z,1011.55
2018-12-17T11:56:48.526Z,1011.56
2018-12-17T11:57:48.517Z,1011.57
2018-12-17T11:58:48.504Z,1011.57
2018-12-17T11:59:48.493Z,1011.57
2018-12-17T12:00:53.719Z,1011.56
2018-12-17T12:01:48.474Z,1011.61
2018-12-17T12:02:48.463Z,1011.60
2018-12-17T12:03:48.450Z,1011.64
2018-12-17T12:04:48.438Z,1011.65
2018-12-17T12:05:48.451Z,1011.70
2018-12-17T12:06:48.420Z,1011.65
2018-12-17T12:07:48.413Z,1011.69